Time;durP1;ratioP1;P1;durP2;ratioP2;P2;SDS_P1;SDS_P2;PMS_P1;PMS_P2;Temp;Humidity;BMP_temperature;BMP_pressure;BME280_temperature;BME280_humidity;BME280_pressure;Samples;Min_cycle;Max_cycle;Signal;HPM_P1;HPM_P2
2021/03/29 00:02:06;;;;;;;12.23;3.70;;;9.10;1.00;;;;;;5000257;28;20214;-85
2021/03/29 00:04:32;;;;;;;8.37;3.63;;;9.10;1.00;;;;;;5016197;28;20267;-85
2021/03/29 00:07:01;;;;;;;5.50;3.13;;;9.10;1.00;;;;;;5033660;28;21675;-85
2021/03/29 00:09:30;;;;;;;7.67;3.40;;;9.10;1.00;;;;;;5052212;28;20232;-85
2021/03/29 00:12:06;;;;;;;8.37;3.60;;;9.10;1.00;;;;;;5033711;28;20213;-84
2021/03/29 00:14:33;;;;;;;6.10;3.67;;;9.10;1.00;;;;;;5032993;28;20247;-85
2021/03/29 00:17:00;;;;;;;6.07;3.30;;;9.10;1.00;;;;;;5029768;28;20572;-84
2021/03/29 00:19:29;;;;;;;6.17;3.80;;;9.10;1.00;;;;;;5033841;28;20216;-84
2021/03/29 00:21:55;;;;;;;7.40;3.50;;;9.10;1.00;;;;;;5033330;28;20189;-84
2021/03/29 00:24:22;;;;;;;6.33;3.20;;;9.20;1.00;;;;;;5032361;28;20227;-85
2021/03/29 00:26:49;;;;;;;6.80;3.27;;;9.10;1.00;;;;;;5035032;28;20220;-85
2021/03/29 00:29:16;;;;;;;8.73;3.83;;;9.10;1.00;;;;;;5034828;28;20319;-85
2021/03/29 00:31:43;;;;;;;7.87;3.17;;;9.10;1.00;;;;;;5034974;28;20218;-85
2021/03/29 00:34:10;;;;;;;6.77;2.93;;;9.20;1.00;;;;;;5032144;28;20238;-84
2021/03/29 00:36:38;;;;;;;5.07;3.00;;;9.10;1.00;;;;;;5018080;28;20262;-84
2021/03/29 00:39:06;;;;;;;8.17;3.60;;;9.10;1.00;;;;;;5033689;28;20567;-84
2021/03/29 00:41:34;;;;;;;8.43;3.33;;;9.10;1.00;;;;;;5050396;28;20210;-84
2021/03/29 00:44:02;;;;;;;10.37;3.27;;;9.10;1.00;;;;;;5034573;28;20261;-85
2021/03/29 00:46:29;;;;;;;8.00;3.33;;;9.00;1.00;;;;;;5031679;28;20239;-84
2021/03/29 00:48:56;;;;;;;7.47;3.20;;;9.10;1.00;;;;;;5053885;28;20557;-83
2021/03/29 00:51:25;;;;;;;7.70;2.80;;;9.10;1.00;;;;;;5051854;28;20267;-84
2021/03/29 00:53:55;;;;;;;10.73;3.47;;;9.10;1.00;;;;;;5035968;28;20219;-84
2021/03/29 00:56:23;;;;;;;7.13;3.17;;;9.10;1.00;;;;;;5032998;28;20253;-84
2021/03/29 00:58:50;;;;;;;7.40;3.17;;;9.00;1.00;;;;;;5031064;28;20201;-84
2021/03/29 01:01:22;;;;;;;8.67;3.23;;;9.00;1.00;;;;;;5015277;28;20199;-83
2021/03/29 01:03:53;;;;;;;5.13;3.20;;;9.00;1.00;;;;;;5030360;28;20230;-84
2021/03/29 01:06:22;;;;;;;5.53;3.57;;;9.10;1.00;;;;;;5032768;28;20214;-84
2021/03/29 01:08:52;;;;;;;7.93;3.27;;;9.10;1.00;;;;;;5047731;28;20210;-84
2021/03/29 01:11:31;;;;;;;8.30;3.53;;;9.10;1.00;;;;;;5049009;28;20208;-84
2021/03/29 01:14:28;;;;;;;8.67;3.70;;;9.10;1.00;;;;;;5032670;28;20373;-84
2021/03/29 01:17:13;;;;;;;9.73;3.50;;;9.10;1.00;;;;;;5021001;28;20235;-84
2021/03/29 01:19:45;;;;;;;8.30;3.07;;;9.10;1.00;;;;;;5031832;28;20227;-84
2021/03/29 01:22:15;;;;;;;9.73;3.57;;;9.10;1.00;;;;;;5033461;28;20222;-85
2021/03/29 01:25:06;;;;;;;6.27;3.20;;;9.20;1.00;;;;;;5027342;28;20313;-84
2021/03/29 01:27:58;;;;;;;9.60;3.43;;;9.10;1.00;;;;;;5033942;28;20219;-84
2021/03/29 01:30:27;;;;;;;6.40;3.13;;;9.10;1.00;;;;;;5022915;28;20303;-85
2021/03/29 01:32:55;;;;;;;7.63;3.20;;;9.10;1.00;;;;;;5033154;28;20200;-84
2021/03/29 01:35:27;;;;;;;7.67;3.13;;;9.10;1.00;;;;;;5032026;28;20244;-84
2021/03/29 01:37:54;;;;;;;7.47;3.43;;;9.10;1.00;;;;;;5027452;28;20196;-84
2021/03/29 01:40:22;;;;;;;8.03;3.30;;;9.10;1.00;;;;;;5031114;28;20651;-84
2021/03/29 01:42:49;;;;;;;9.67;3.40;;;9.10;1.00;;;;;;5030808;28;20202;-84
2021/03/29 01:45:18;;;;;;;8.93;3.57;;;9.10;1.00;;;;;;5031201;28;20276;-84
2021/03/29 01:47:46;;;;;;;7.73;3.27;;;9.20;1.00;;;;;;5045045;28;20212;-84
2021/03/29 01:50:22;;;;;;;9.87;3.70;;;9.20;1.00;;;;;;5047319;28;20291;-85
2021/03/29 01:52:49;;;;;;;13.40;3.10;;;9.20;1.00;;;;;;5029813;28;20222;-85
2021/03/29 01:55:17;;;;;;;6.33;2.53;;;9.30;1.00;;;;;;5031561;28;20266;-85
2021/03/29 01:57:43;;;;;;;8.57;3.27;;;9.30;1.00;;;;;;5030115;28;20322;-85
2021/03/29 02:00:15;;;;;;;6.33;2.53;;;9.30;1.00;;;;;;5028674;28;20199;-85
2021/03/29 02:02:43;;;;;;;7.87;2.87;;;9.40;1.00;;;;;;5026743;28;20234;-85
2021/03/29 02:05:13;;;;;;;5.33;2.87;;;9.50;1.00;;;;;;5020463;28;20880;-85
2021/03/29 02:07:42;;;;;;;11.33;3.17;;;9.50;1.00;;;;;;5022064;28;20267;-84
2021/03/29 02:10:17;;;;;;;10.53;2.63;;;9.60;1.00;;;;;;5018279;28;20271;-84
2021/03/29 02:12:44;;;;;;;5.83;2.60;;;9.50;1.00;;;;;;5017131;28;20640;-84
2021/03/29 02:15:37;;;;;;;9.43;2.83;;;9.50;1.00;;;;;;5027679;28;20300;-84
2021/03/29 02:18:09;;;;;;;11.23;3.37;;;9.60;1.00;;;;;;5030406;28;20209;-84
2021/03/29 02:20:37;;;;;;;6.00;2.80;;;9.60;1.00;;;;;;5018671;28;20205;-84
2021/03/29 02:23:08;;;;;;;9.40;3.27;;;9.60;1.00;;;;;;5017599;28;20553;-84
2021/03/29 02:25:35;;;;;;;4.93;2.60;;;9.60;1.00;;;;;;5010704;28;20261;-86
2021/03/29 02:28:04;;;;;;;6.27;2.90;;;9.60;1.00;;;;;;5011814;28;20262;-85
2021/03/29 02:30:37;;;;;;;5.70;2.70;;;9.60;1.00;;;;;;5027953;28;20209;-85
2021/03/29 02:33:09;;;;;;;10.20;3.00;;;9.70;1.00;;;;;;5025579;28;20220;-85
2021/03/29 02:35:37;;;;;;;7.10;2.47;;;9.60;1.00;;;;;;5000948;28;20251;-85
2021/03/29 02:38:05;;;;;;;6.13;2.87;;;9.50;1.00;;;;;;5016775;28;20201;-86
2021/03/29 02:40:32;;;;;;;9.33;3.50;;;9.50;1.00;;;;;;5019068;28;20258;-85
2021/03/29 02:43:02;;;;;;;8.80;3.33;;;9.60;1.00;;;;;;5002708;28;20212;-85
2021/03/29 02:45:34;;;;;;;9.20;2.63;;;9.50;1.00;;;;;;5014650;28;20201;-85
2021/03/29 02:48:08;;;;;;;4.97;2.53;;;9.50;1.00;;;;;;5029137;28;20674;-85
2021/03/29 02:50:38;;;;;;;7.73;3.07;;;9.50;1.00;;;;;;5030573;28;20204;-85
2021/03/29 02:53:09;;;;;;;5.70;2.40;;;9.50;1.00;;;;;;5018046;28;20235;-85
2021/03/29 02:55:37;;;;;;;10.17;2.93;;;9.50;1.00;;;;;;5016018;28;20267;-85
2021/03/29 02:58:05;;;;;;;6.93;2.67;;;9.40;1.00;;;;;;5000837;28;20240;-85
2021/03/29 03:00:34;;;;;;;4.83;2.03;;;9.40;1.00;;;;;;5028906;28;20273;-86
2021/03/29 03:03:02;;;;;;;5.03;2.13;;;9.50;1.00;;;;;;5017310;28;20203;-85
2021/03/29 03:05:32;;;;;;;6.83;2.27;;;9.50;1.00;;;;;;5006875;28;20252;-85
2021/03/29 03:07:59;;;;;;;7.63;2.67;;;9.40;1.00;;;;;;5015154;28;20273;-85
2021/03/29 03:10:28;;;;;;;7.20;2.60;;;9.40;1.00;;;;;;4999691;28;20282;-85
2021/03/29 03:12:56;;;;;;;6.03;2.70;;;9.50;1.00;;;;;;5019671;28;20266;-85
2021/03/29 03:15:26;;;;;;;4.27;2.17;;;9.50;1.00;;;;;;5016487;28;20327;-85
2021/03/29 03:17:54;;;;;;;4.10;2.40;;;9.50;1.00;;;;;;5023366;28;20314;-85
2021/03/29 03:20:20;;;;;;;5.87;2.30;;;9.50;1.00;;;;;;5017465;28;20202;-85
2021/03/29 03:23:04;;;;;;;6.10;2.33;;;9.50;1.00;;;;;;5021757;28;20213;-85
2021/03/29 03:25:35;;;;;;;5.93;1.87;;;9.50;1.00;;;;;;5009006;28;20208;-84
2021/03/29 03:28:07;;;;;;;5.77;2.30;;;9.50;1.00;;;;;;5016706;28;20212;-86
2021/03/29 03:30:39;;;;;;;6.23;2.20;;;9.60;1.00;;;;;;5031591;28;20231;-85
2021/03/29 03:33:07;;;;;;;4.43;2.57;;;9.60;1.00;;;;;;5018374;28;20887;-85
2021/03/29 03:35:36;;;;;;;4.40;2.33;;;9.50;1.00;;;;;;5001162;28;20251;-85
2021/03/29 03:38:08;;;;;;;3.97;2.47;;;9.60;1.00;;;;;;5015529;28;20220;-85
2021/03/29 03:40:36;;;;;;;4.30;2.10;;;9.50;1.00;;;;;;5017920;28;20207;-85
2021/03/29 03:43:06;;;;;;;4.53;2.57;;;9.60;1.00;;;;;;5033293;28;20213;-85
2021/03/29 03:45:48;;;;;;;5.73;1.93;;;9.60;1.00;;;;;;5012680;28;20341;-85
2021/03/29 03:48:16;;;;;;;4.97;2.10;;;9.60;1.00;;;;;;5009479;28;20303;-85
2021/03/29 03:50:46;;;;;;;7.37;2.17;;;9.50;1.00;;;;;;5016439;28;20204;-85
2021/03/29 03:53:13;;;;;;;6.27;2.10;;;9.50;1.00;;;;;;5015197;28;20276;-85
2021/03/29 03:55:40;;;;;;;7.20;2.30;;;9.60;1.00;;;;;;5007223;28;20636;-85
2021/03/29 03:58:07;;;;;;;7.23;2.60;;;9.50;1.00;;;;;;4998887;28;20203;-85
2021/03/29 04:00:35;;;;;;;3.97;2.27;;;9.50;1.00;;;;;;4996652;28;20208;-85
2021/03/29 04:03:01;;;;;;;11.80;2.73;;;9.50;1.00;;;;;;5010775;28;20200;-85
2021/03/29 04:05:28;;;;;;;4.63;1.97;;;9.50;1.00;;;;;;5027129;28;20682;-85
2021/03/29 04:08:14;;;;;;;6.93;2.27;;;9.40;1.00;;;;;;5033628;28;20294;-85
2021/03/29 04:10:48;;;;;;;3.67;2.20;;;9.40;1.00;;;;;;5031967;28;20205;-85
2021/03/29 04:13:23;;;;;;;8.03;2.10;;;9.40;1.00;;;;;;5034370;28;20208;-85
2021/03/29 04:15:51;;;;;;;5.03;1.87;;;9.40;1.00;;;;;;5046374;28;20232;-85
2021/03/29 04:18:18;;;;;;;10.10;2.23;;;9.40;1.00;;;;;;5033879;28;20194;-85
2021/03/29 04:20:44;;;;;;;7.33;2.10;;;9.50;1.00;;;;;;5034706;28;20204;-85
2021/03/29 04:23:12;;;;;;;5.77;2.23;;;9.40;1.00;;;;;;5032308;28;20579;-85
2021/03/29 04:25:39;;;;;;;6.83;2.43;;;9.40;1.00;;;;;;5048573;28;20266;-85
2021/03/29 04:28:05;;;;;;;5.17;2.13;;;9.40;1.00;;;;;;5050101;28;20199;-85
2021/03/29 04:30:32;;;;;;;3.47;1.87;;;9.30;1.00;;;;;;5030819;28;20235;-85
2021/03/29 04:32:59;;;;;;;8.73;2.37;;;9.30;1.00;;;;;;5031551;28;20262;-85
2021/03/29 04:35:25;;;;;;;6.83;2.07;;;9.30;1.00;;;;;;5046032;28;20216;-85
2021/03/29 04:37:53;;;;;;;6.97;2.53;;;9.30;1.00;;;;;;5032443;28;20199;-85
2021/03/29 04:40:22;;;;;;;2.80;1.67;;;9.20;1.00;;;;;;5044264;28;20200;-85
2021/03/29 04:42:49;;;;;;;6.80;2.20;;;9.20;1.00;;;;;;5031451;28;20295;-85
2021/03/29 04:45:16;;;;;;;7.57;2.30;;;9.20;1.00;;;;;;5033259;28;20264;-84
2021/03/29 04:47:43;;;;;;;5.20;1.90;;;9.20;1.00;;;;;;5025102;28;20607;-84
2021/03/29 04:50:10;;;;;;;4.70;1.90;;;9.10;1.00;;;;;;5034189;28;20214;-84
2021/03/29 04:52:37;;;;;;;7.03;2.77;;;9.10;1.00;;;;;;5016819;28;20268;-85
2021/03/29 04:55:05;;;;;;;6.90;3.00;;;9.10;1.00;;;;;;5034288;28;20235;-85
2021/03/29 04:57:31;;;;;;;5.63;2.20;;;9.10;1.00;;;;;;5048474;28;20215;-85
2021/03/29 04:59:57;;;;;;;9.60;2.57;;;9.20;1.00;;;;;;5048527;28;20657;-85
2021/03/29 05:02:24;;;;;;;3.57;1.60;;;9.10;1.00;;;;;;5031022;28;20212;-84
2021/03/29 05:04:50;;;;;;;7.47;2.47;;;9.10;1.00;;;;;;5030509;28;20573;-85
2021/03/29 05:07:21;;;;;;;5.20;2.37;;;9.10;1.00;;;;;;5028690;28;20201;-85
2021/03/29 05:09:48;;;;;;;2.50;1.90;;;9.10;1.00;;;;;;5028919;28;20604;-84
2021/03/29 05:12:19;;;;;;;7.37;2.90;;;9.10;1.00;;;;;;5050415;28;20242;-84
2021/03/29 05:14:46;;;;;;;4.13;2.17;;;9.10;1.00;;;;;;5034987;28;20204;-84
2021/03/29 05:17:13;;;;;;;4.53;2.20;;;9.10;1.00;;;;;;5047062;28;20194;-84
2021/03/29 05:19:39;;;;;;;8.07;2.53;;;9.00;1.00;;;;;;5067385;28;20199;-84
2021/03/29 05:22:09;;;;;;;4.30;2.43;;;9.10;1.00;;;;;;5035533;28;20196;-84
2021/03/29 05:24:36;;;;;;;4.77;2.70;;;9.10;1.00;;;;;;5053817;28;20253;-84
2021/03/29 05:27:05;;;;;;;7.63;2.17;;;9.10;1.00;;;;;;5045833;28;20180;-84
2021/03/29 05:29:45;;;;;;;4.33;2.37;;;9.10;1.00;;;;;;5065933;28;20201;-84
2021/03/29 05:32:26;;;;;;;8.63;2.43;;;9.00;1.00;;;;;;5045795;28;20203;-84
2021/03/29 05:34:56;;;;;;;3.60;2.00;;;8.90;1.00;;;;;;5056528;28;20206;-84
2021/03/29 05:37:24;;;;;;;2.50;1.90;;;9.00;1.00;;;;;;5036439;28;20258;-84
2021/03/29 05:39:53;;;;;;;5.10;2.10;;;9.00;1.00;;;;;;5019424;28;20193;-84
2021/03/29 05:42:20;;;;;;;8.70;2.73;;;9.00;1.00;;;;;;5035923;28;20202;-82
2021/03/29 05:44:50;;;;;;;5.63;2.00;;;9.00;1.00;;;;;;5035150;28;20290;-83
2021/03/29 05:47:17;;;;;;;6.40;2.50;;;9.00;1.00;;;;;;5026993;28;20205;-84
2021/03/29 05:49:43;;;;;;;5.53;2.10;;;9.00;1.00;;;;;;5034911;28;20200;-84
2021/03/29 05:52:11;;;;;;;6.87;2.67;;;9.00;1.00;;;;;;5031748;28;20280;-82
2021/03/29 05:54:39;;;;;;;4.07;2.27;;;9.10;1.00;;;;;;5033763;28;20226;-82
2021/03/29 05:57:06;;;;;;;4.57;2.17;;;9.00;1.00;;;;;;5012848;28;20220;-82
2021/03/29 06:01:59;;;;;;;10.20;2.47;;;9.10;1.00;;;;;;5046678;28;20342;-83
2021/03/29 06:04:48;;;;;;;5.97;2.30;;;9.10;99.90;;;;;;5033388;28;20527;-83
2021/03/29 06:07:18;;;;;;;4.00;1.90;;;9.10;99.90;;;;;;5027759;28;20639;-82
2021/03/29 06:09:46;;;;;;;6.07;2.13;;;9.10;99.90;;;;;;5046482;28;20201;-83
2021/03/29 06:12:15;;;;;;;3.57;2.23;;;9.00;1.00;;;;;;5026357;28;20212;-83
2021/03/29 06:14:45;;;;;;;7.17;2.67;;;9.00;1.00;;;;;;5024025;28;20206;-83
2021/03/29 06:17:20;;;;;;;6.17;2.57;;;9.00;1.00;;;;;;5044260;28;20217;-83
2021/03/29 06:19:48;;;;;;;10.73;2.70;;;9.00;1.00;;;;;;5032170;28;20583;-83
2021/03/29 06:22:28;;;;;;;7.30;2.50;;;9.00;1.00;;;;;;5029644;28;20206;-83
2021/03/29 06:24:58;;;;;;;3.57;2.27;;;8.90;1.00;;;;;;5043350;28;20289;-82
2021/03/29 06:27:46;;;;;;;6.53;2.43;;;8.90;1.00;;;;;;5028419;28;20235;-83
2021/03/29 06:30:32;;;;;;;9.13;2.60;;;8.90;1.00;;;;;;5033035;28;20204;-83
2021/03/29 06:33:06;;;;;;;5.47;2.50;;;8.90;1.00;;;;;;5029259;28;20276;-82
2021/03/29 06:35:40;;;;;;;7.90;2.90;;;9.00;1.00;;;;;;5042906;28;20658;-82
2021/03/29 06:38:08;;;;;;;5.90;2.40;;;9.10;1.00;;;;;;5026586;28;20202;-83
2021/03/29 06:40:36;;;;;;;7.23;3.33;;;9.00;1.00;;;;;;5050419;28;20334;-83
2021/03/29 06:43:30;;;;;;;5.37;2.83;;;9.20;99.90;;;;;;5034021;28;20283;-82
2021/03/29 06:46:00;;;;;;;4.70;2.57;;;9.10;99.90;;;;;;5049396;28;20203;-82
2021/03/29 06:48:32;;;;;;;8.83;2.47;;;9.20;1.00;;;;;;5036430;28;20206;-82
2021/03/29 06:51:20;;;;;;;8.13;2.00;;;9.20;1.00;;;;;;5019384;28;20205;-82
2021/03/29 06:54:01;;;;;;;7.50;2.23;;;9.40;99.90;;;;;;5035883;28;20251;-83
2021/03/29 06:56:31;;;;;;;5.00;2.80;;;9.50;99.90;;;;;;5033999;28;20220;-83
2021/03/29 06:59:15;;;;;;;4.23;2.27;;;9.70;99.90;;;;;;5033743;28;20208;-80
2021/03/29 07:01:48;;;;;;;4.10;2.07;;;9.80;99.90;;;;;;5034503;28;20259;-83
2021/03/29 07:04:21;;;;;;;6.80;2.77;;;10.10;99.90;;;;;;5037896;28;20230;-84
2021/03/29 07:06:49;;;;;;;9.53;2.40;;;10.20;99.90;;;;;;5022513;28;20209;-83
2021/03/29 07:09:17;;;;;;;4.30;2.17;;;10.30;99.90;;;;;;5036676;28;20227;-84
2021/03/29 07:11:45;;;;;;;6.17;2.17;;;10.50;99.90;;;;;;5040675;28;20197;-83
2021/03/29 07:14:12;;;;;;;8.03;3.30;;;10.60;99.90;;;;;;5037211;28;20546;-83
2021/03/29 07:16:40;;;;;;;12.57;2.73;;;10.60;99.90;;;;;;5030252;28;20197;-84
2021/03/29 07:19:09;;;;;;;7.50;2.10;;;10.70;99.90;;;;;;5052424;28;20205;-83
2021/03/29 07:21:36;;;;;;;4.87;2.73;;;10.80;99.90;;;;;;5027972;28;20198;-84
2021/03/29 07:24:06;;;;;;;6.83;2.43;;;10.80;99.90;;;;;;5057773;28;20794;-80
2021/03/29 07:26:43;;;;;;;7.87;2.43;;;11.00;99.90;;;;;;5039384;28;20348;-83
2021/03/29 07:29:28;;;;;;;4.63;2.03;;;11.00;99.90;;;;;;5056471;28;20217;-83
2021/03/29 07:31:59;;;;;;;5.67;1.97;;;11.10;99.90;;;;;;5040129;28;20865;-82
2021/03/29 07:34:50;;;;;;;8.33;2.27;;;11.40;99.90;;;;;;5029975;28;20258;-83
2021/03/29 07:37:40;;;;;;;6.07;2.33;;;11.40;99.90;;;;;;5038031;28;20544;-82
2021/03/29 07:40:19;;;;;;;6.50;2.73;;;11.40;99.90;;;;;;5039194;28;20205;-82
2021/03/29 07:42:53;;;;;;;7.97;2.33;;;11.60;99.90;;;;;;5039668;28;20605;-82
2021/03/29 07:45:38;;;;;;;3.83;2.57;;;11.60;99.90;;;;;;5039567;28;20210;-82
2021/03/29 07:48:06;;;;;;;6.47;3.07;;;11.70;99.90;;;;;;5040035;28;20202;-82
2021/03/29 07:50:32;;;;;;;5.70;2.20;;;11.80;99.90;;;;;;5017665;28;20245;-82
2021/03/29 07:53:03;;;;;;;9.63;2.17;;;11.90;99.90;;;;;;5032349;28;20309;-82
2021/03/29 07:55:35;;;;;;;4.70;2.17;;;12.10;99.90;;;;;;5046878;28;20219;-82
2021/03/29 07:58:11;;;;;;;7.20;2.43;;;12.10;99.90;;;;;;5033869;28;20219;-82
2021/03/29 08:00:38;;;;;;;3.70;2.57;;;12.20;99.90;;;;;;5051227;28;20284;-82
2021/03/29 08:03:10;;;;;;;3.53;2.40;;;12.30;99.90;;;;;;5037465;28;20341;-81
2021/03/29 08:05:48;;;;;;;7.43;2.53;;;12.60;99.90;;;;;;5036560;28;20308;-84
2021/03/29 08:08:26;;;;;;;6.90;2.53;;;12.60;99.90;;;;;;5014444;28;20198;-81
2021/03/29 08:11:08;;;;;;;5.93;2.23;;;12.80;99.90;;;;;;5025383;28;20264;-82
2021/03/29 08:13:42;;;;;;;7.20;2.07;;;12.90;99.90;;;;;;5034483;28;20573;-82
2021/03/29 08:16:30;;;;;;;5.13;1.90;;;12.80;99.90;;;;;;5036985;28;20219;-82
2021/03/29 08:19:14;;;;;;;5.57;2.40;;;13.20;99.90;;;;;;5034728;28;20195;-81
2021/03/29 08:22:21;;;;;;;2.93;1.70;;;13.30;99.90;;;;;;5037176;28;20218;-81
2021/03/29 08:24:49;;;;;;;5.57;2.20;;;13.20;99.90;;;;;;5035663;28;20242;-81
2021/03/29 08:27:18;;;;;;;9.33;2.43;;;13.20;99.90;;;;;;5037484;28;20223;-81
2021/03/29 08:29:47;;;;;;;3.80;2.70;;;13.50;99.90;;;;;;5036646;28;20251;-81
2021/03/29 08:32:25;;;;;;;5.00;2.27;;;13.40;99.90;;;;;;5036081;28;20612;-81
2021/03/29 08:34:53;;;;;;;4.60;1.97;;;13.50;99.90;;;;;;5035505;28;20226;-81
2021/03/29 08:37:42;;;;;;;10.73;2.70;;;13.80;99.90;;;;;;5034981;28;20201;-81
2021/03/29 08:40:33;;;;;;;7.83;2.10;;;14.00;99.90;;;;;;5036575;28;20266;-81
2021/03/29 08:43:05;;;;;;;5.83;2.20;;;13.80;99.90;;;;;;5033737;28;20214;-82
2021/03/29 08:45:32;;;;;;;3.27;2.07;;;13.90;99.90;;;;;;5039260;28;20237;-81
2021/03/29 08:48:02;;;;;;;4.30;2.07;;;14.50;99.50;;;;;;5053136;28;20212;-83
2021/03/29 08:50:37;;;;;;;5.77;1.90;;;14.40;95.80;;;;;;5034432;28;20214;-81
2021/03/29 08:53:09;;;;;;;4.97;2.03;;;14.50;97.60;;;;;;5027419;28;20825;-83
2021/03/29 08:55:37;;;;;;;6.57;1.90;;;14.40;95.30;;;;;;5023654;28;20526;-82
2021/03/29 08:58:05;;;;;;;4.57;2.00;;;14.60;93.90;;;;;;5026920;28;20671;-82
2021/03/29 09:00:35;;;;;;;7.30;2.23;;;14.20;92.10;;;;;;5031966;28;20212;-82
2021/03/29 09:03:02;;;;;;;2.73;2.07;;;14.40;94.30;;;;;;5028190;28;20693;-82
2021/03/29 09:05:30;;;;;;;3.73;2.13;;;14.70;93.10;;;;;;5032466;28;20305;-81
2021/03/29 09:08:08;;;;;;;4.73;1.97;;;15.00;93.00;;;;;;5029790;28;20204;-81
2021/03/29 09:10:44;;;;;;;4.77;2.17;;;15.00;90.50;;;;;;5049585;28;20312;-81
2021/03/29 09:13:13;;;;;;;3.10;1.63;;;15.30;90.00;;;;;;5031022;28;20303;-81
2021/03/29 09:15:49;;;;;;;3.57;2.17;;;15.60;89.20;;;;;;5034675;28;20225;-81
2021/03/29 09:18:17;;;;;;;3.80;2.10;;;15.20;88.30;;;;;;5018077;28;20261;-81
2021/03/29 09:20:51;;;;;;;4.73;2.00;;;15.20;89.60;;;;;;5029270;28;20676;-80
2021/03/29 09:23:20;;;;;;;4.37;1.97;;;15.70;90.50;;;;;;5031416;28;20295;-81
2021/03/29 09:25:52;;;;;;;6.10;1.97;;;15.80;82.70;;;;;;5015980;28;20258;-82
2021/03/29 09:30:55;;;;;;;5.17;2.00;;;15.70;83.10;;;;;;5026036;28;20277;-79
2021/03/29 09:33:22;;;;;;;5.23;1.80;;;15.70;85.00;;;;;;5031663;28;20208;-81
2021/03/29 09:35:51;;;;;;;5.13;2.17;;;15.60;81.40;;;;;;5031177;28;20236;-79
2021/03/29 09:38:42;;;;;;;4.47;1.80;;;15.40;81.70;;;;;;5031705;28;20201;-78
2021/03/29 09:41:15;;;;;;;4.17;1.80;;;15.50;82.00;;;;;;5037417;28;20206;-80
2021/03/29 09:43:43;;;;;;;4.40;2.03;;;15.80;80.70;;;;;;5030725;28;20239;-80
2021/03/29 09:46:10;;;;;;;8.00;2.07;;;15.60;77.40;;;;;;5034245;28;20215;-79
2021/03/29 09:48:36;;;;;;;3.00;2.07;;;15.60;77.70;;;;;;5011018;28;20271;-80
2021/03/29 09:51:19;;;;;;;9.60;2.63;;;15.70;80.60;;;;;;5030268;28;20275;-80
2021/03/29 09:53:46;;;;;;;7.10;2.30;;;16.20;79.00;;;;;;5030015;28;20220;-80
2021/03/29 09:56:13;;;;;;;5.00;2.00;;;15.90;78.10;;;;;;5014351;28;20217;-81
2021/03/29 09:58:47;;;;;;;2.63;1.80;;;16.00;76.30;;;;;;5027810;28;20288;-81
2021/03/29 10:01:19;;;;;;;10.17;2.70;;;15.90;76.60;;;;;;5048509;28;20193;-81
2021/03/29 10:03:56;;;;;;;3.73;1.70;;;16.20;79.00;;;;;;5030212;28;20197;-81
2021/03/29 10:06:25;;;;;;;4.63;1.43;;;16.30;76.60;;;;;;5029489;28;20198;-80
2021/03/29 10:08:59;;;;;;;3.90;2.00;;;16.60;72.70;;;;;;5031136;28;20205;-80
2021/03/29 10:11:28;;;;;;;3.13;2.10;;;16.30;76.30;;;;;;5031113;28;20196;-81
2021/03/29 10:14:05;;;;;;;4.03;2.33;;;16.20;72.70;;;;;;5033587;28;20230;-81
2021/03/29 10:16:31;;;;;;;3.97;1.70;;;16.30;72.20;;;;;;5038554;28;20224;-82
2021/03/29 10:19:20;;;;;;;3.37;1.67;;;16.40;72.00;;;;;;5022908;28;20193;-81
2021/03/29 10:22:03;;;;;;;4.40;1.73;;;16.80;71.40;;;;;;5024635;28;20194;-81
2021/03/29 10:24:30;;;;;;;5.63;2.07;;;16.90;71.00;;;;;;5052689;28;20295;-81
2021/03/29 10:27:06;;;;;;;6.50;2.27;;;17.00;67.50;;;;;;5036342;28;20197;-81
2021/03/29 10:29:36;;;;;;;6.00;1.50;;;17.20;67.20;;;;;;5036453;28;20225;-81
2021/03/29 10:32:18;;;;;;;6.43;1.93;;;17.50;67.40;;;;;;5037757;28;20204;-82
2021/03/29 10:34:49;;;;;;;7.73;1.97;;;17.70;61.80;;;;;;5054084;28;20205;-82
2021/03/29 10:37:23;;;;;;;10.70;2.43;;;17.80;60.60;;;;;;5034371;28;20210;-82
2021/03/29 10:39:51;;;;;;;4.23;2.03;;;17.60;58.10;;;;;;5047960;28;20200;-81
2021/03/29 10:42:20;;;;;;;4.10;1.70;;;17.60;57.30;;;;;;5036255;28;20232;-81
2021/03/29 10:44:47;;;;;;;4.67;1.80;;;17.40;59.00;;;;;;5039301;28;20224;-81
2021/03/29 10:47:13;;;;;;;2.73;1.50;;;17.40;55.30;;;;;;5051333;28;20332;-81
2021/03/29 10:49:41;;;;;;;4.47;1.80;;;17.60;55.10;;;;;;5021096;28;20299;-81
2021/03/29 10:52:08;;;;;;;4.23;1.57;;;17.90;53.20;;;;;;5035383;28;20642;-81
2021/03/29 10:54:36;;;;;;;8.03;2.07;;;17.90;52.50;;;;;;5039439;28;20260;-81
2021/03/29 10:57:04;;;;;;;3.93;1.90;;;17.90;48.10;;;;;;5055317;28;20205;-81
2021/03/29 10:59:30;;;;;;;3.60;2.10;;;18.30;47.50;;;;;;5022862;28;20217;-81
2021/03/29 11:01:58;;;;;;;4.63;1.57;;;18.30;50.00;;;;;;5037227;28;20626;-81
2021/03/29 11:04:24;;;;;;;4.57;1.63;;;18.50;45.90;;;;;;5010465;28;20771;-81
2021/03/29 11:06:50;;;;;;;4.20;2.00;;;18.20;45.50;;;;;;4979982;28;20276;-81
2021/03/29 11:09:17;;;;;;;3.70;1.90;;;18.40;45.20;;;;;;5017024;28;20307;-80
2021/03/29 11:11:43;;;;;;;4.77;2.07;;;18.30;43.30;;;;;;5017655;28;20281;-80
2021/03/29 11:14:10;;;;;;;5.13;1.97;;;18.50;43.70;;;;;;5000405;28;20263;-80
2021/03/29 11:16:36;;;;;;;5.27;1.80;;;19.00;46.00;;;;;;5013738;28;20232;-81
2021/03/29 11:19:03;;;;;;;4.60;1.73;;;19.30;40.20;;;;;;5014897;28;20228;-81
2021/03/29 11:21:30;;;;;;;4.03;1.93;;;19.40;41.60;;;;;;5017732;28;20645;-82
2021/03/29 11:23:56;;;;;;;3.80;1.53;;;19.60;43.00;;;;;;5017601;28;20667;-81
2021/03/29 11:26:23;;;;;;;5.03;1.90;;;20.10;34.70;;;;;;5016978;28;20366;-81
2021/03/29 11:28:49;;;;;;;11.57;5.73;;;19.60;28.70;;;;;;5016301;28;20205;-81
2021/03/29 11:31:16;;;;;;;4.20;2.03;;;18.90;28.50;;;;;;5014410;28;20220;-82
2021/03/29 11:33:42;;;;;;;5.37;1.87;;;19.00;31.10;;;;;;5000014;28;20272;-81
2021/03/29 11:36:09;;;;;;;3.33;2.30;;;19.10;28.80;;;;;;5026088;28;20553;-80
2021/03/29 11:38:37;;;;;;;4.83;1.87;;;19.10;29.20;;;;;;5012361;28;20213;-80
2021/03/29 11:41:04;;;;;;;8.23;2.10;;;19.10;27.90;;;;;;5009061;28;20205;-81
2021/03/29 11:43:31;;;;;;;4.90;1.93;;;19.10;29.00;;;;;;5029200;28;20215;-81
2021/03/29 11:45:57;;;;;;;5.27;1.70;;;19.50;25.80;;;;;;4997846;28;20217;-81
2021/03/29 11:48:33;;;;;;;5.27;1.93;;;19.80;29.60;;;;;;5009663;28;20624;-81
2021/03/29 11:51:00;;;;;;;5.27;2.40;;;19.50;25.90;;;;;;5012511;28;20292;-81
2021/03/29 11:53:26;;;;;;;5.10;2.17;;;19.50;25.40;;;;;;4997324;28;20269;-80
2021/03/29 11:55:53;;;;;;;2.83;1.80;;;19.70;27.70;;;;;;4997277;28;20240;-81
2021/03/29 11:58:19;;;;;;;5.87;1.93;;;19.40;26.20;;;;;;5013208;28;20898;-81
2021/03/29 12:00:53;;;;;;;5.27;2.10;;;19.30;24.20;;;;;;5011880;28;20198;-82
2021/03/29 12:05:57;;;;;;;4.87;2.07;;;20.10;25.10;;;;;;5032056;28;20244;-81
2021/03/29 12:08:44;;;;;;;5.13;1.70;;;20.00;20.80;;;;;;5033637;28;20288;-81
2021/03/29 12:13:56;;;;;;;3.77;2.33;;;19.70;19.00;;;;;;5037414;28;20204;-81
2021/03/29 12:16:25;;;;;;;4.30;1.70;;;19.80;17.80;;;;;;5026956;28;20276;-81
2021/03/29 12:18:59;;;;;;;2.63;1.30;;;20.20;16.90;;;;;;5036419;28;20852;-81
2021/03/29 12:21:29;;;;;;;4.47;1.60;;;19.90;16.40;;;;;;5019279;28;20657;-81
2021/03/29 12:23:59;;;;;;;2.13;1.60;;;20.40;17.70;;;;;;5017548;28;20267;-81
2021/03/29 12:26:27;;;;;;;5.03;1.90;;;20.70;20.80;;;;;;5032287;28;20199;-79
2021/03/29 12:28:56;;;;;;;4.50;1.90;;;20.30;11.10;;;;;;5034610;28;20236;-80
2021/03/29 12:31:23;;;;;;;3.07;1.70;;;20.20;11.10;;;;;;5037943;28;20668;-79
2021/03/29 12:33:51;;;;;;;4.13;1.77;;;20.50;13.50;;;;;;5035634;28;20208;-81
2021/03/29 12:36:18;;;;;;;3.80;2.00;;;20.50;10.80;;;;;;5035988;28;20235;-80
2021/03/29 12:38:59;;;;;;;6.40;1.70;;;20.40;11.70;;;;;;5036827;28;20540;-81
2021/03/29 12:41:26;;;;;;;4.47;1.80;;;20.30;11.60;;;;;;5035756;28;20203;-81
2021/03/29 12:43:59;;;;;;;2.80;1.63;;;20.60;10.50;;;;;;5034139;28;20957;-81
2021/03/29 12:46:25;;;;;;;4.67;1.67;;;20.40;8.80;;;;;;5020372;28;20209;-81
2021/03/29 12:48:52;;;;;;;4.43;1.60;;;20.40;5.90;;;;;;5035223;28;20272;-80
2021/03/29 12:51:19;;;;;;;3.50;1.63;;;20.40;7.10;;;;;;5018340;28;20198;-82
2021/03/29 12:53:47;;;;;;;3.67;1.27;;;20.50;4.80;;;;;;5032160;28;20199;-81
2021/03/29 12:56:16;;;;;;;3.53;2.00;;;21.10;6.00;;;;;;5036114;28;20214;-81
2021/03/29 12:58:42;;;;;;;4.43;1.90;;;20.80;2.50;;;;;;5035048;28;20659;-81
2021/03/29 13:01:10;;;;;;;4.00;1.77;;;20.70;2.60;;;;;;5033092;28;20198;-79
2021/03/29 13:03:50;;;;;;;3.20;1.90;;;21.10;1.30;;;;;;5024059;28;20216;-79
2021/03/29 13:06:24;;;;;;;2.90;1.57;;;20.70;1.00;;;;;;5045453;28;20260;-86
2021/03/29 13:09:01;;;;;;;2.90;1.53;;;20.30;1.00;;;;;;5008875;28;20203;-86
2021/03/29 13:11:31;;;;;;;2.47;1.80;;;20.30;1.00;;;;;;5035536;28;20254;-85
2021/03/29 13:14:00;;;;;;;2.70;1.57;;;20.80;1.00;;;;;;5017600;28;20234;-84
2021/03/29 13:16:27;;;;;;;3.77;1.57;;;20.60;1.00;;;;;;5029424;28;20206;-79
2021/03/29 13:18:54;;;;;;;3.13;1.57;;;20.70;1.00;;;;;;5014848;28;20233;-81
2021/03/29 13:21:21;;;;;;;4.23;1.70;;;20.60;1.00;;;;;;5028565;28;20206;-81
2021/03/29 13:23:48;;;;;;;8.00;1.73;;;20.90;1.00;;;;;;5015516;28;20699;-79
2021/03/29 13:26:19;;;;;;;5.00;1.57;;;21.10;1.00;;;;;;5049242;28;20658;-80
2021/03/29 13:28:48;;;;;;;5.10;1.63;;;21.40;1.00;;;;;;5016375;28;20212;-80